sensor_id;sensor_type;location;lat;lon;timestamp;P1;durP1;ratioP1;P2;durP2;ratioP2
68614;SDS011;55593;51.994;5.882;2023-09-19T00:00:58;4.70;;;1.90;;
68614;SDS011;55593;51.994;5.882;2023-09-19T00:03:29;7.28;;;2.30;;
68614;SDS011;55593;51.994;5.882;2023-09-19T00:05:58;6.13;;;1.70;;
68614;SDS011;55593;51.994;5.882;2023-09-19T00:08:27;8.35;;;1.95;;
68614;SDS011;55593;51.994;5.882;2023-09-19T00:10:59;10.95;;;2.90;;
68614;SDS011;55593;51.994;5.882;2023-09-19T00:13:32;11.57;;;2.53;;
68614;SDS011;55593;51.994;5.882;2023-09-19T00:16:05;7.38;;;2.30;;
68614;SDS011;55593;51.994;5.882;2023-09-19T00:18:37;12.33;;;3.07;;
68614;SDS011;55593;51.994;5.882;2023-09-19T00:21:06;9.38;;;2.17;;
68614;SDS011;55593;51.994;5.882;2023-09-19T00:23:36;8.70;;;2.05;;
68614;SDS011;55593;51.994;5.882;2023-09-19T00:26:09;18.10;;;2.72;;
68614;SDS011;55593;51.994;5.882;2023-09-19T00:28:39;10.88;;;2.92;;
68614;SDS011;55593;51.994;5.882;2023-09-19T00:31:09;8.85;;;2.50;;
68614;SDS011;55593;51.994;5.882;2023-09-19T00:33:38;13.40;;;4.10;;
68614;SDS011;55593;51.994;5.882;2023-09-19T00:36:08;13.23;;;2.97;;
68614;SDS011;55593;51.994;5.882;2023-09-19T00:38:37;12.82;;;2.85;;
68614;SDS011;55593;51.994;5.882;2023-09-19T00:41:09;12.30;;;3.80;;
68614;SDS011;55593;51.994;5.882;2023-09-19T00:43:38;11.77;;;2.83;;
68614;SDS011;55593;51.994;5.882;2023-09-19T00:46:07;19.50;;;3.08;;
68614;SDS011;55593;51.994;5.882;2023-09-19T00:48:38;13.77;;;3.55;;
68614;SDS011;55593;51.994;5.882;2023-09-19T00:51:10;14.25;;;2.92;;
68614;SDS011;55593;51.994;5.882;2023-09-19T00:53:39;13.90;;;3.28;;
68614;SDS011;55593;51.994;5.882;2023-09-19T00:56:14;9.55;;;2.67;;
68614;SDS011;55593;51.994;5.882;2023-09-19T00:58:44;14.07;;;3.38;;
68614;SDS011;55593;51.994;5.882;2023-09-19T01:01:13;11.02;;;2.75;;
68614;SDS011;55593;51.994;5.882;2023-09-19T01:03:43;15.10;;;2.55;;
68614;SDS011;55593;51.994;5.882;2023-09-19T01:06:13;16.40;;;4.82;;
68614;SDS011;55593;51.994;5.882;2023-09-19T01:08:43;8.95;;;2.47;;
68614;SDS011;55593;51.994;5.882;2023-09-19T01:11:17;14.07;;;3.83;;
68614;SDS011;55593;51.994;5.882;2023-09-19T01:13:54;13.95;;;3.45;;
68614;SDS011;55593;51.994;5.882;2023-09-19T01:16:32;14.32;;;3.28;;
68614;SDS011;55593;51.994;5.882;2023-09-19T01:19:07;11.82;;;2.80;;
68614;SDS011;55593;51.994;5.882;2023-09-19T01:21:55;16.55;;;2.95;;
68614;SDS011;55593;51.994;5.882;2023-09-19T01:30:40;15.30;;;3.45;;
68614;SDS011;55593;51.994;5.882;2023-09-19T01:33:12;17.02;;;4.07;;
68614;SDS011;55593;51.994;5.882;2023-09-19T01:35:42;23.20;;;4.57;;
68614;SDS011;55593;51.994;5.882;2023-09-19T01:38:11;12.07;;;2.65;;
68614;SDS011;55593;51.994;5.882;2023-09-19T01:40:41;14.65;;;3.72;;
68614;SDS011;55593;51.994;5.882;2023-09-19T01:43:12;19.98;;;4.07;;
68614;SDS011;55593;51.994;5.882;2023-09-19T01:45:50;17.83;;;3.60;;
68614;SDS011;55593;51.994;5.882;2023-09-19T01:48:23;16.55;;;3.72;;
68614;SDS011;55593;51.994;5.882;2023-09-19T01:50:59;19.20;;;4.00;;
68614;SDS011;55593;51.994;5.882;2023-09-19T01:53:30;20.55;;;3.75;;
68614;SDS011;55593;51.994;5.882;2023-09-19T01:56:02;20.48;;;4.45;;
68614;SDS011;55593;51.994;5.882;2023-09-19T01:58:34;16.80;;;3.55;;
68614;SDS011;55593;51.994;5.882;2023-09-19T02:01:08;18.73;;;3.50;;
68614;SDS011;55593;51.994;5.882;2023-09-19T02:03:38;18.35;;;3.45;;
68614;SDS011;55593;51.994;5.882;2023-09-19T02:06:13;19.02;;;3.65;;
68614;SDS011;55593;51.994;5.882;2023-09-19T02:08:43;15.27;;;4.15;;
68614;SDS011;55593;51.994;5.882;2023-09-19T02:11:13;17.65;;;3.28;;
68614;SDS011;55593;51.994;5.882;2023-09-19T02:13:42;16.52;;;3.65;;
68614;SDS011;55593;51.994;5.882;2023-09-19T02:16:14;16.90;;;3.47;;
68614;SDS011;55593;51.994;5.882;2023-09-19T02:18:46;20.40;;;4.78;;
68614;SDS011;55593;51.994;5.882;2023-09-19T02:21:16;16.25;;;3.38;;
68614;SDS011;55593;51.994;5.882;2023-09-19T02:23:47;19.65;;;4.80;;
68614;SDS011;55593;51.994;5.882;2023-09-19T02:26:17;14.73;;;3.45;;
68614;SDS011;55593;51.994;5.882;2023-09-19T02:28:47;18.52;;;2.97;;
68614;SDS011;55593;51.994;5.882;2023-09-19T02:31:19;13.95;;;3.30;;
68614;SDS011;55593;51.994;5.882;2023-09-19T02:33:48;15.45;;;3.63;;
68614;SDS011;55593;51.994;5.882;2023-09-19T02:36:17;14.48;;;3.90;;
68614;SDS011;55593;51.994;5.882;2023-09-19T02:38:47;12.27;;;2.70;;
68614;SDS011;55593;51.994;5.882;2023-09-19T02:41:16;14.57;;;3.63;;
68614;SDS011;55593;51.994;5.882;2023-09-19T02:43:45;15.65;;;3.72;;
68614;SDS011;55593;51.994;5.882;2023-09-19T02:46:14;23.55;;;4.75;;
68614;SDS011;55593;51.994;5.882;2023-09-19T02:48:46;17.95;;;4.03;;
68614;SDS011;55593;51.994;5.882;2023-09-19T02:51:16;14.93;;;3.72;;
68614;SDS011;55593;51.994;5.882;2023-09-19T02:53:46;18.05;;;3.08;;
68614;SDS011;55593;51.994;5.882;2023-09-19T02:56:15;15.32;;;3.67;;
68614;SDS011;55593;51.994;5.882;2023-09-19T02:58:45;14.63;;;3.38;;
68614;SDS011;55593;51.994;5.882;2023-09-19T03:01:14;16.65;;;4.43;;
68614;SDS011;55593;51.994;5.882;2023-09-19T03:03:48;16.25;;;4.78;;
68614;SDS011;55593;51.994;5.882;2023-09-19T03:06:17;12.82;;;2.92;;
68614;SDS011;55593;51.994;5.882;2023-09-19T03:08:46;12.45;;;2.95;;
68614;SDS011;55593;51.994;5.882;2023-09-19T03:11:18;17.35;;;3.33;;
68614;SDS011;55593;51.994;5.882;2023-09-19T03:13:51;15.75;;;3.60;;
68614;SDS011;55593;51.994;5.882;2023-09-19T03:16:22;14.07;;;3.38;;
68614;SDS011;55593;51.994;5.882;2023-09-19T03:18:57;11.05;;;2.92;;
68614;SDS011;55593;51.994;5.882;2023-09-19T03:21:28;18.20;;;4.35;;
68614;SDS011;55593;51.994;5.882;2023-09-19T03:23:58;14.85;;;4.22;;
68614;SDS011;55593;51.994;5.882;2023-09-19T03:26:27;21.02;;;3.50;;
68614;SDS011;55593;51.994;5.882;2023-09-19T03:28:56;19.40;;;3.22;;
68614;SDS011;55593;51.994;5.882;2023-09-19T03:31:26;14.57;;;3.58;;
68614;SDS011;55593;51.994;5.882;2023-09-19T03:33:59;20.15;;;5.38;;
68614;SDS011;55593;51.994;5.882;2023-09-19T03:36:29;21.33;;;3.83;;
68614;SDS011;55593;51.994;5.882;2023-09-19T03:38:58;16.67;;;3.63;;
68614;SDS011;55593;51.994;5.882;2023-09-19T03:41:31;20.77;;;3.63;;
68614;SDS011;55593;51.994;5.882;2023-09-19T03:44:02;12.25;;;3.47;;
68614;SDS011;55593;51.994;5.882;2023-09-19T03:46:32;19.90;;;3.42;;
68614;SDS011;55593;51.994;5.882;2023-09-19T03:49:04;15.20;;;3.75;;
68614;SDS011;55593;51.994;5.882;2023-09-19T03:51:34;13.85;;;2.83;;
68614;SDS011;55593;51.994;5.882;2023-09-19T03:54:04;15.48;;;3.45;;
68614;SDS011;55593;51.994;5.882;2023-09-19T03:56:33;14.85;;;3.10;;
68614;SDS011;55593;51.994;5.882;2023-09-19T03:59:02;17.30;;;4.70;;
68614;SDS011;55593;51.994;5.882;2023-09-19T04:01:32;17.92;;;3.33;;
68614;SDS011;55593;51.994;5.882;2023-09-19T04:04:01;13.00;;;2.83;;
68614;SDS011;55593;51.994;5.882;2023-09-19T04:06:38;13.95;;;3.00;;
68614;SDS011;55593;51.994;5.882;2023-09-19T04:09:07;15.30;;;3.15;;
68614;SDS011;55593;51.994;5.882;2023-09-19T04:11:38;25.25;;;3.25;;
68614;SDS011;55593;51.994;5.882;2023-09-19T04:14:07;11.65;;;2.88;;
68614;SDS011;55593;51.994;5.882;2023-09-19T04:16:36;13.93;;;3.38;;
68614;SDS011;55593;51.994;5.882;2023-09-19T04:19:06;11.15;;;2.75;;
68614;SDS011;55593;51.994;5.882;2023-09-19T04:21:38;13.88;;;3.28;;
68614;SDS011;55593;51.994;5.882;2023-09-19T04:24:07;16.40;;;3.88;;
68614;SDS011;55593;51.994;5.882;2023-09-19T04:26:37;16.08;;;2.90;;
68614;SDS011;55593;51.994;5.882;2023-09-19T04:29:07;16.90;;;2.95;;
68614;SDS011;55593;51.994;5.882;2023-09-19T04:31:37;15.10;;;3.38;;
68614;SDS011;55593;51.994;5.882;2023-09-19T04:34:10;13.15;;;3.20;;
68614;SDS011;55593;51.994;5.882;2023-09-19T04:36:45;17.83;;;3.38;;
68614;SDS011;55593;51.994;5.882;2023-09-19T04:39:15;17.45;;;3.17;;
68614;SDS011;55593;51.994;5.882;2023-09-19T04:41:44;14.18;;;3.25;;
68614;SDS011;55593;51.994;5.882;2023-09-19T04:44:13;14.85;;;2.80;;
68614;SDS011;55593;51.994;5.882;2023-09-19T04:46:43;16.83;;;3.10;;
68614;SDS011;55593;51.994;5.882;2023-09-19T04:49:13;13.60;;;3.42;;
68614;SDS011;55593;51.994;5.882;2023-09-19T04:51:45;13.60;;;2.92;;
68614;SDS011;55593;51.994;5.882;2023-09-19T04:54:15;17.60;;;3.25;;
68614;SDS011;55593;51.994;5.882;2023-09-19T04:56:44;23.05;;;4.22;;
68614;SDS011;55593;51.994;5.882;2023-09-19T04:59:13;12.85;;;2.95;;
68614;SDS011;55593;51.994;5.882;2023-09-19T05:01:42;9.65;;;2.47;;
68614;SDS011;55593;51.994;5.882;2023-09-19T05:04:12;12.90;;;2.90;;
68614;SDS011;55593;51.994;5.882;2023-09-19T05:06:42;30.23;;;5.38;;
68614;SDS011;55593;51.994;5.882;2023-09-19T05:09:13;11.25;;;2.88;;
68614;SDS011;55593;51.994;5.882;2023-09-19T05:11:45;16.88;;;2.88;;
68614;SDS011;55593;51.994;5.882;2023-09-19T05:14:15;11.98;;;2.67;;
68614;SDS011;55593;51.994;5.882;2023-09-19T05:16:44;18.60;;;3.65;;
68614;SDS011;55593;51.994;5.882;2023-09-19T05:19:14;11.80;;;2.97;;
68614;SDS011;55593;51.994;5.882;2023-09-19T05:21:43;17.27;;;3.22;;
68614;SDS011;55593;51.994;5.882;2023-09-19T05:24:15;13.52;;;3.28;;
68614;SDS011;55593;51.994;5.882;2023-09-19T05:26:44;13.98;;;3.42;;
68614;SDS011;55593;51.994;5.882;2023-09-19T05:29:13;16.52;;;3.08;;
68614;SDS011;55593;51.994;5.882;2023-09-19T05:31:42;9.88;;;2.80;;
68614;SDS011;55593;51.994;5.882;2023-09-19T05:34:12;11.98;;;2.70;;
68614;SDS011;55593;51.994;5.882;2023-09-19T05:36:42;12.50;;;3.55;;
68614;SDS011;55593;51.994;5.882;2023-09-19T05:39:11;14.75;;;3.35;;
68614;SDS011;55593;51.994;5.882;2023-09-19T05:41:43;12.18;;;3.42;;
68614;SDS011;55593;51.994;5.882;2023-09-19T05:44:13;21.58;;;4.55;;
68614;SDS011;55593;51.994;5.882;2023-09-19T05:46:42;15.27;;;3.63;;
68614;SDS011;55593;51.994;5.882;2023-09-19T05:49:11;9.77;;;2.50;;
68614;SDS011;55593;51.994;5.882;2023-09-19T05:51:41;13.93;;;2.83;;
68614;SDS011;55593;51.994;5.882;2023-09-19T05:54:11;16.08;;;3.38;;
68614;SDS011;55593;51.994;5.882;2023-09-19T05:56:43;11.65;;;3.17;;
68614;SDS011;55593;51.994;5.882;2023-09-19T05:59:13;9.77;;;3.03;;
68614;SDS011;55593;51.994;5.882;2023-09-19T06:01:42;10.70;;;2.95;;
68614;SDS011;55593;51.994;5.882;2023-09-19T06:04:12;16.95;;;3.15;;
68614;SDS011;55593;51.994;5.882;2023-09-19T06:06:41;17.08;;;3.63;;
68614;SDS011;55593;51.994;5.882;2023-09-19T06:09:10;19.70;;;3.20;;
68614;SDS011;55593;51.994;5.882;2023-09-19T06:11:41;19.83;;;3.10;;
68614;SDS011;55593;51.994;5.882;2023-09-19T06:14:12;19.20;;;2.97;;
68614;SDS011;55593;51.994;5.882;2023-09-19T06:16:43;14.05;;;2.80;;
68614;SDS011;55593;51.994;5.882;2023-09-19T06:19:13;15.73;;;3.20;;
68614;SDS011;55593;51.994;5.882;2023-09-19T06:21:42;13.43;;;3.55;;
68614;SDS011;55593;51.994;5.882;2023-09-19T06:24:12;13.70;;;2.63;;
68614;SDS011;55593;51.994;5.882;2023-09-19T06:26:44;13.63;;;2.67;;
68614;SDS011;55593;51.994;5.882;2023-09-19T06:29:13;15.77;;;3.00;;
68614;SDS011;55593;51.994;5.882;2023-09-19T06:31:42;13.63;;;3.25;;
68614;SDS011;55593;51.994;5.882;2023-09-19T06:34:11;13.30;;;2.85;;
68614;SDS011;55593;51.994;5.882;2023-09-19T06:36:41;14.98;;;2.78;;
68614;SDS011;55593;51.994;5.882;2023-09-19T06:39:43;13.82;;;2.95;;
68614;SDS011;55593;51.994;5.882;2023-09-19T06:42:15;14.52;;;3.00;;
68614;SDS011;55593;51.994;5.882;2023-09-19T06:44:47;21.23;;;3.40;;
68614;SDS011;55593;51.994;5.882;2023-09-19T06:47:17;14.25;;;2.75;;
68614;SDS011;55593;51.994;5.882;2023-09-19T06:49:47;13.27;;;3.00;;
68614;SDS011;55593;51.994;5.882;2023-09-19T06:52:18;13.90;;;3.83;;
68614;SDS011;55593;51.994;5.882;2023-09-19T06:54:49;17.67;;;3.53;;
68614;SDS011;55593;51.994;5.882;2023-09-19T06:57:21;20.40;;;4.40;;
68614;SDS011;55593;51.994;5.882;2023-09-19T06:59:50;14.93;;;3.47;;
68614;SDS011;55593;51.994;5.882;2023-09-19T07:02:19;13.35;;;3.00;;
68614;SDS011;55593;51.994;5.882;2023-09-19T07:04:49;19.45;;;3.92;;
68614;SDS011;55593;51.994;5.882;2023-09-19T07:07:18;19.67;;;3.90;;
68614;SDS011;55593;51.994;5.882;2023-09-19T07:09:47;14.65;;;2.45;;
68614;SDS011;55593;51.994;5.882;2023-09-19T07:12:22;19.40;;;4.05;;
68614;SDS011;55593;51.994;5.882;2023-09-19T07:14:51;23.55;;;3.53;;
68614;SDS011;55593;51.994;5.882;2023-09-19T07:17:20;17.70;;;3.47;;
68614;SDS011;55593;51.994;5.882;2023-09-19T07:19:49;16.88;;;2.97;;
68614;SDS011;55593;51.994;5.882;2023-09-19T07:22:19;18.02;;;3.80;;
68614;SDS011;55593;51.994;5.882;2023-09-19T07:24:49;20.52;;;3.38;;
68614;SDS011;55593;51.994;5.882;2023-09-19T07:27:18;16.70;;;3.40;;
68614;SDS011;55593;51.994;5.882;2023-09-19T07:29:50;17.48;;;4.20;;
68614;SDS011;55593;51.994;5.882;2023-09-19T07:32:19;27.02;;;5.00;;
68614;SDS011;55593;51.994;5.882;2023-09-19T07:34:49;22.42;;;3.85;;
68614;SDS011;55593;51.994;5.882;2023-09-19T07:37:18;19.70;;;2.92;;
68614;SDS011;55593;51.994;5.882;2023-09-19T07:39:47;21.02;;;3.72;;
68614;SDS011;55593;51.994;5.882;2023-09-19T07:42:17;14.57;;;3.40;;
68614;SDS011;55593;51.994;5.882;2023-09-19T07:44:46;15.55;;;3.58;;
68614;SDS011;55593;51.994;5.882;2023-09-19T07:47:19;16.27;;;4.47;;
68614;SDS011;55593;51.994;5.882;2023-09-19T07:49:48;19.60;;;3.72;;
68614;SDS011;55593;51.994;5.882;2023-09-19T07:52:17;16.42;;;3.58;;
68614;SDS011;55593;51.994;5.882;2023-09-19T07:54:48;18.70;;;4.55;;
68614;SDS011;55593;51.994;5.882;2023-09-19T07:57:18;15.70;;;3.28;;
68614;SDS011;55593;51.994;5.882;2023-09-19T07:59:47;18.70;;;3.95;;
68614;SDS011;55593;51.994;5.882;2023-09-19T08:02:18;17.75;;;3.83;;
68614;SDS011;55593;51.994;5.882;2023-09-19T08:04:48;15.07;;;3.30;;
68614;SDS011;55593;51.994;5.882;2023-09-19T08:07:18;15.20;;;3.30;;
68614;SDS011;55593;51.994;5.882;2023-09-19T08:09:48;16.92;;;3.33;;
68614;SDS011;55593;51.994;5.882;2023-09-19T08:12:18;19.23;;;3.70;;
68614;SDS011;55593;51.994;5.882;2023-09-19T08:14:52;19.20;;;3.10;;
68614;SDS011;55593;51.994;5.882;2023-09-19T08:17:24;14.40;;;3.35;;
68614;SDS011;55593;51.994;5.882;2023-09-19T08:19:53;13.07;;;3.40;;
68614;SDS011;55593;51.994;5.882;2023-09-19T08:22:23;20.13;;;3.75;;
68614;SDS011;55593;51.994;5.882;2023-09-19T08:24:53;18.65;;;3.22;;
68614;SDS011;55593;51.994;5.882;2023-09-19T08:27:22;13.93;;;4.05;;
68614;SDS011;55593;51.994;5.882;2023-09-19T08:29:52;13.30;;;3.20;;
68614;SDS011;55593;51.994;5.882;2023-09-19T08:32:24;15.80;;;3.28;;
68614;SDS011;55593;51.994;5.882;2023-09-19T08:34:53;18.10;;;3.42;;
68614;SDS011;55593;51.994;5.882;2023-09-19T08:37:22;18.48;;;4.45;;
68614;SDS011;55593;51.994;5.882;2023-09-19T08:39:51;19.70;;;4.15;;
68614;SDS011;55593;51.994;5.882;2023-09-19T08:42:21;17.42;;;3.22;;
68614;SDS011;55593;51.994;5.882;2023-09-19T08:44:51;14.32;;;3.63;;
68614;SDS011;55593;51.994;5.882;2023-09-19T08:47:25;17.98;;;4.57;;
68614;SDS011;55593;51.994;5.882;2023-09-19T08:50:01;22.42;;;3.90;;
68614;SDS011;55593;51.994;5.882;2023-09-19T08:52:41;21.15;;;4.15;;
68614;SDS011;55593;51.994;5.882;2023-09-19T08:55:11;25.17;;;4.80;;
68614;SDS011;55593;51.994;5.882;2023-09-19T08:57:46;17.73;;;3.78;;
68614;SDS011;55593;51.994;5.882;2023-09-19T09:00:18;14.40;;;3.08;;
68614;SDS011;55593;51.994;5.882;2023-09-19T09:02:51;20.77;;;3.72;;
68614;SDS011;55593;51.994;5.882;2023-09-19T09:05:20;15.32;;;4.65;;
68614;SDS011;55593;51.994;5.882;2023-09-19T09:07:52;23.80;;;4.20;;
68614;SDS011;55593;51.994;5.882;2023-09-19T09:10:22;23.58;;;3.85;;
68614;SDS011;55593;51.994;5.882;2023-09-19T09:12:51;14.00;;;3.20;;
68614;SDS011;55593;51.994;5.882;2023-09-19T09:15:21;21.75;;;5.43;;
68614;SDS011;55593;51.994;5.882;2023-09-19T09:17:54;19.25;;;4.05;;
68614;SDS011;55593;51.994;5.882;2023-09-19T09:20:24;17.90;;;3.95;;
68614;SDS011;55593;51.994;5.882;2023-09-19T09:22:53;17.40;;;3.55;;
68614;SDS011;55593;51.994;5.882;2023-09-19T09:25:46;17.83;;;3.65;;
68614;SDS011;55593;51.994;5.882;2023-09-19T09:28:18;17.05;;;3.60;;
68614;SDS011;55593;51.994;5.882;2023-09-19T09:30:48;16.58;;;3.75;;
68614;SDS011;55593;51.994;5.882;2023-09-19T09:33:20;18.75;;;3.40;;
68614;SDS011;55593;51.994;5.882;2023-09-19T09:35:51;16.30;;;3.00;;
68614;SDS011;55593;51.994;5.882;2023-09-19T09:38:19;18.95;;;3.83;;
68614;SDS011;55593;51.994;5.882;2023-09-19T09:40:52;19.60;;;4.32;;
68614;SDS011;55593;51.994;5.882;2023-09-19T09:43:27;8.43;;;2.50;;
68614;SDS011;55593;51.994;5.882;2023-09-19T09:46:06;16.45;;;3.55;;
68614;SDS011;55593;51.994;5.882;2023-09-19T09:49:03;15.68;;;4.60;;
68614;SDS011;55593;51.994;5.882;2023-09-19T09:51:45;14.25;;;3.20;;
68614;SDS011;55593;51.994;5.882;2023-09-19T09:54:23;18.85;;;3.75;;
68614;SDS011;55593;51.994;5.882;2023-09-19T09:59:47;13.50;;;3.83;;
68614;SDS011;55593;51.994;5.882;2023-09-19T10:02:22;17.15;;;3.03;;
68614;SDS011;55593;51.994;5.882;2023-09-19T10:04:57;13.73;;;2.90;;
68614;SDS011;55593;51.994;5.882;2023-09-19T10:07:35;17.80;;;4.32;;
68614;SDS011;55593;51.994;5.882;2023-09-19T10:10:07;12.35;;;2.80;;
68614;SDS011;55593;51.994;5.882;2023-09-19T10:12:45;12.48;;;3.17;;
68614;SDS011;55593;51.994;5.882;2023-09-19T10:15:16;18.35;;;3.97;;
68614;SDS011;55593;51.994;5.882;2023-09-19T10:17:50;24.73;;;3.83;;
68614;SDS011;55593;51.994;5.882;2023-09-19T10:20:28;19.48;;;3.92;;
68614;SDS011;55593;51.994;5.882;2023-09-19T10:23:05;17.15;;;4.07;;
68614;SDS011;55593;51.994;5.882;2023-09-19T10:25:39;22.73;;;4.05;;
68614;SDS011;55593;51.994;5.882;2023-09-19T10:28:09;19.30;;;4.15;;
68614;SDS011;55593;51.994;5.882;2023-09-19T10:30:41;14.48;;;3.28;;
68614;SDS011;55593;51.994;5.882;2023-09-19T10:33:13;15.57;;;4.45;;
68614;SDS011;55593;51.994;5.882;2023-09-19T10:35:46;12.93;;;2.83;;
68614;SDS011;55593;51.994;5.882;2023-09-19T10:38:17;16.55;;;3.33;;
68614;SDS011;55593;51.994;5.882;2023-09-19T10:40:48;21.80;;;3.78;;
68614;SDS011;55593;51.994;5.882;2023-09-19T10:43:19;17.70;;;3.55;;
68614;SDS011;55593;51.994;5.882;2023-09-19T10:45:49;17.70;;;3.13;;
68614;SDS011;55593;51.994;5.882;2023-09-19T10:48:19;17.40;;;3.65;;
68614;SDS011;55593;51.994;5.882;2023-09-19T10:50:56;17.33;;;3.17;;
68614;SDS011;55593;51.994;5.882;2023-09-19T10:53:31;16.08;;;2.78;;
68614;SDS011;55593;51.994;5.882;2023-09-19T10:56:11;17.10;;;3.20;;
68614;SDS011;55593;51.994;5.882;2023-09-19T11:01:16;20.30;;;3.00;;
68614;SDS011;55593;51.994;5.882;2023-09-19T11:03:46;16.52;;;2.80;;
68614;SDS011;55593;51.994;5.882;2023-09-19T11:06:21;19.27;;;2.70;;
68614;SDS011;55593;51.994;5.882;2023-09-19T11:08:51;12.93;;;3.53;;
68614;SDS011;55593;51.994;5.882;2023-09-19T11:20:21;11.27;;;2.85;;
68614;SDS011;55593;51.994;5.882;2023-09-19T11:23:21;19.70;;;3.58;;
68614;SDS011;55593;51.994;5.882;2023-09-19T11:25:52;11.98;;;2.35;;
68614;SDS011;55593;51.994;5.882;2023-09-19T11:28:28;13.65;;;3.08;;
68614;SDS011;55593;51.994;5.882;2023-09-19T11:40:09;12.98;;;3.45;;
68614;SDS011;55593;51.994;5.882;2023-09-19T11:48:38;14.20;;;2.70;;
68614;SDS011;55593;51.994;5.882;2023-09-19T11:51:15;13.77;;;2.75;;
68614;SDS011;55593;51.994;5.882;2023-09-19T11:53:50;14.43;;;2.90;;
68614;SDS011;55593;51.994;5.882;2023-09-19T11:56:22;12.02;;;2.63;;
68614;SDS011;55593;51.994;5.882;2023-09-19T11:58:54;10.90;;;2.60;;
68614;SDS011;55593;51.994;5.882;2023-09-19T12:01:29;11.88;;;3.50;;
68614;SDS011;55593;51.994;5.882;2023-09-19T12:03:59;15.10;;;3.42;;
68614;SDS011;55593;51.994;5.882;2023-09-19T12:06:30;12.45;;;2.67;;
68614;SDS011;55593;51.994;5.882;2023-09-19T12:09:01;16.50;;;3.08;;
68614;SDS011;55593;51.994;5.882;2023-09-19T12:11:40;13.35;;;3.10;;
68614;SDS011;55593;51.994;5.882;2023-09-19T12:14:10;13.88;;;2.88;;
68614;SDS011;55593;51.994;5.882;2023-09-19T12:16:39;16.50;;;2.85;;
68614;SDS011;55593;51.994;5.882;2023-09-19T12:19:17;12.73;;;2.33;;
68614;SDS011;55593;51.994;5.882;2023-09-19T12:21:54;9.43;;;2.17;;
68614;SDS011;55593;51.994;5.882;2023-09-19T12:24:25;11.40;;;2.67;;
68614;SDS011;55593;51.994;5.882;2023-09-19T12:27:02;16.33;;;2.50;;
68614;SDS011;55593;51.994;5.882;2023-09-19T12:29:44;34.80;;;3.80;;
68614;SDS011;55593;51.994;5.882;2023-09-19T12:32:14;7.07;;;2.03;;
68614;SDS011;55593;51.994;5.882;2023-09-19T12:34:50;7.03;;;1.90;;
68614;SDS011;55593;51.994;5.882;2023-09-19T12:37:20;12.38;;;2.20;;
68614;SDS011;55593;51.994;5.882;2023-09-19T12:40:03;9.48;;;2.30;;
68614;SDS011;55593;51.994;5.882;2023-09-19T12:42:45;5.85;;;1.92;;
68614;SDS011;55593;51.994;5.882;2023-09-19T12:45:15;11.40;;;2.20;;
68614;SDS011;55593;51.994;5.882;2023-09-19T12:51:02;11.95;;;2.40;;
68614;SDS011;55593;51.994;5.882;2023-09-19T12:53:33;14.95;;;3.53;;
68614;SDS011;55593;51.994;5.882;2023-09-19T12:56:06;5.15;;;1.60;;
68614;SDS011;55593;51.994;5.882;2023-09-19T12:58:50;7.45;;;1.85;;
68614;SDS011;55593;51.994;5.882;2023-09-19T13:01:20;7.30;;;1.88;;
68614;SDS011;55593;51.994;5.882;2023-09-19T13:06:44;8.13;;;1.83;;
68614;SDS011;55593;51.994;5.882;2023-09-19T13:09:14;12.10;;;2.47;;
68614;SDS011;55593;51.994;5.882;2023-09-19T13:11:44;9.77;;;1.90;;
68614;SDS011;55593;51.994;5.882;2023-09-19T13:14:19;6.80;;;1.85;;
68614;SDS011;55593;51.994;5.882;2023-09-19T13:16:53;7.78;;;2.08;;
68614;SDS011;55593;51.994;5.882;2023-09-19T13:19:36;6.65;;;1.80;;
68614;SDS011;55593;51.994;5.882;2023-09-19T13:25:08;7.63;;;2.05;;
68614;SDS011;55593;51.994;5.882;2023-09-19T13:27:40;6.57;;;1.80;;
68614;SDS011;55593;51.994;5.882;2023-09-19T13:30:13;6.82;;;1.73;;
68614;SDS011;55593;51.994;5.882;2023-09-19T13:32:42;9.25;;;2.13;;
68614;SDS011;55593;51.994;5.882;2023-09-19T13:35:13;9.60;;;2.03;;
68614;SDS011;55593;51.994;5.882;2023-09-19T13:37:43;8.90;;;1.50;;
68614;SDS011;55593;51.994;5.882;2023-09-19T13:40:15;5.40;;;1.48;;
68614;SDS011;55593;51.994;5.882;2023-09-19T13:42:44;10.15;;;1.83;;
68614;SDS011;55593;51.994;5.882;2023-09-19T13:45:16;8.25;;;1.63;;
68614;SDS011;55593;51.994;5.882;2023-09-19T13:47:48;8.23;;;1.48;;
68614;SDS011;55593;51.994;5.882;2023-09-19T13:50:17;6.65;;;1.70;;
68614;SDS011;55593;51.994;5.882;2023-09-19T13:52:49;6.03;;;1.77;;
68614;SDS011;55593;51.994;5.882;2023-09-19T13:55:19;4.15;;;1.52;;
68614;SDS011;55593;51.994;5.882;2023-09-19T13:57:50;8.43;;;1.40;;
68614;SDS011;55593;51.994;5.882;2023-09-19T14:00:24;9.98;;;1.75;;
68614;SDS011;55593;51.994;5.882;2023-09-19T14:02:54;6.32;;;1.40;;
68614;SDS011;55593;51.994;5.882;2023-09-19T14:05:23;7.88;;;1.45;;
68614;SDS011;55593;51.994;5.882;2023-09-19T14:07:53;4.15;;;1.20;;
68614;SDS011;55593;51.994;5.882;2023-09-19T14:10:24;9.75;;;1.90;;
68614;SDS011;55593;51.994;5.882;2023-09-19T14:12:53;8.52;;;1.38;;
68614;SDS011;55593;51.994;5.882;2023-09-19T14:15:26;7.68;;;1.40;;
68614;SDS011;55593;51.994;5.882;2023-09-19T14:18:00;6.40;;;1.50;;
68614;SDS011;55593;51.994;5.882;2023-09-19T14:20:30;5.85;;;1.30;;
68614;SDS011;55593;51.994;5.882;2023-09-19T14:22:59;5.05;;;1.67;;
68614;SDS011;55593;51.994;5.882;2023-09-19T14:25:28;5.80;;;1.38;;
68614;SDS011;55593;51.994;5.882;2023-09-19T14:27:57;5.72;;;1.50;;
68614;SDS011;55593;51.994;5.882;2023-09-19T14:30:29;7.43;;;1.38;;
68614;SDS011;55593;51.994;5.882;2023-09-19T14:32:58;7.90;;;1.48;;
68614;SDS011;55593;51.994;5.882;2023-09-19T14:35:27;9.02;;;1.55;;
68614;SDS011;55593;51.994;5.882;2023-09-19T14:37:57;8.05;;;1.73;;
68614;SDS011;55593;51.994;5.882;2023-09-19T14:40:26;6.97;;;1.60;;
68614;SDS011;55593;51.994;5.882;2023-09-19T14:42:55;6.68;;;1.95;;
68614;SDS011;55593;51.994;5.882;2023-09-19T14:45:24;7.78;;;1.50;;
68614;SDS011;55593;51.994;5.882;2023-09-19T14:47:56;4.32;;;1.52;;
68614;SDS011;55593;51.994;5.882;2023-09-19T14:50:25;12.15;;;1.77;;
68614;SDS011;55593;51.994;5.882;2023-09-19T14:52:55;5.22;;;1.60;;
68614;SDS011;55593;51.994;5.882;2023-09-19T14:55:27;6.10;;;1.73;;
68614;SDS011;55593;51.994;5.882;2023-09-19T14:58:00;5.13;;;1.83;;
68614;SDS011;55593;51.994;5.882;2023-09-19T15:00:29;8.95;;;1.75;;
68614;SDS011;55593;51.994;5.882;2023-09-19T15:03:02;6.60;;;1.73;;
68614;SDS011;55593;51.994;5.882;2023-09-19T15:05:32;8.50;;;1.95;;
68614;SDS011;55593;51.994;5.882;2023-09-19T15:08:01;7.43;;;2.08;;
68614;SDS011;55593;51.994;5.882;2023-09-19T15:10:31;8.45;;;2.20;;
68614;SDS011;55593;51.994;5.882;2023-09-19T15:13:00;7.60;;;1.67;;
68614;SDS011;55593;51.994;5.882;2023-09-19T15:15:31;9.95;;;2.03;;
68614;SDS011;55593;51.994;5.882;2023-09-19T15:18:03;6.20;;;1.90;;
68614;SDS011;55593;51.994;5.882;2023-09-19T15:20:33;4.18;;;1.60;;
68614;SDS011;55593;51.994;5.882;2023-09-19T15:23:03;9.55;;;3.00;;
68614;SDS011;55593;51.994;5.882;2023-09-19T15:25:32;10.25;;;2.53;;
68614;SDS011;55593;51.994;5.882;2023-09-19T15:28:01;6.15;;;1.75;;
68614;SDS011;55593;51.994;5.882;2023-09-19T15:30:36;8.00;;;1.70;;
68614;SDS011;55593;51.994;5.882;2023-09-19T15:33:08;7.47;;;2.08;;
68614;SDS011;55593;51.994;5.882;2023-09-19T15:35:37;8.93;;;1.60;;
68614;SDS011;55593;51.994;5.882;2023-09-19T15:38:08;8.98;;;2.10;;
68614;SDS011;55593;51.994;5.882;2023-09-19T15:40:45;8.48;;;1.67;;
68614;SDS011;55593;51.994;5.882;2023-09-19T15:43:14;7.75;;;2.00;;
68614;SDS011;55593;51.994;5.882;2023-09-19T15:45:44;10.73;;;2.00;;
68614;SDS011;55593;51.994;5.882;2023-09-19T15:48:16;10.35;;;1.95;;